createdAt,value
2023-05-13T00:02:27.504Z,65.81
2023-05-13T00:07:29.214Z,64.17
2023-05-13T00:12:31.231Z,67.46
2023-05-13T00:17:32.928Z,68.27
2023-05-13T00:22:34.668Z,68.98
2023-05-13T00:27:36.402Z,69.29
2023-05-13T00:32:38.063Z,69.69
2023-05-13T00:37:39.835Z,69.70
2023-05-13T00:42:41.639Z,69.69
2023-05-13T00:47:44.108Z,69.63
2023-05-13T00:52:47.819Z,69.86
2023-05-13T00:57:49.650Z,69.81
2023-05-13T01:03:09.923Z,70.07
2023-05-13T01:08:27.014Z,70.80
2023-05-13T01:13:33.179Z,71.31
2023-05-13T01:18:38.111Z,71.60
2023-05-13T01:23:39.891Z,71.80
2023-05-13T01:28:41.929Z,71.64
2023-05-13T01:33:44.476Z,71.68
2023-05-13T01:38:48.669Z,70.61
2023-05-13T01:43:50.944Z,71.26
2023-05-13T01:48:52.683Z,71.29
2023-05-13T01:53:55.276Z,71.62
2023-05-13T01:58:58.126Z,71.25
2023-05-13T02:04:00.279Z,70.43
2023-05-13T02:09:02.153Z,70.92
2023-05-13T02:14:04.247Z,70.58
2023-05-13T02:19:06.973Z,69.94
2023-05-13T02:24:09.160Z,68.42
2023-05-13T02:29:11.029Z,67.92
2023-05-13T02:34:12.882Z,69.42
2023-05-13T02:39:14.594Z,68.63
2023-05-13T02:44:16.604Z,68.44
2023-05-13T02:49:19.367Z,68.75
2023-05-13T02:54:21.328Z,68.66
2023-05-13T02:59:23.856Z,69.84
2023-05-13T03:04:25.723Z,69.46
2023-05-13T03:09:27.386Z,68.31
2023-05-13T03:14:29.186Z,68.05
2023-05-13T03:19:31.818Z,67.69
2023-05-13T03:24:34.036Z,67.56
2023-05-13T03:29:36.819Z,67.72
2023-05-13T03:34:38.997Z,67.24
2023-05-13T03:39:40.799Z,67.52
2023-05-13T03:44:42.458Z,67.46
2023-05-13T03:49:48.040Z,67.67
2023-05-13T03:54:49.764Z,67.61
2023-05-13T03:59:51.568Z,67.78
2023-05-13T04:07:12.610Z,67.01
2023-05-13T04:12:15.750Z,67.41
2023-05-13T04:17:17.578Z,67.19
2023-05-13T04:22:19.523Z,67.74
2023-05-13T04:27:21.162Z,67.43
2023-05-13T04:32:23.083Z,66.85
2023-05-13T04:37:27.463Z,67.64
2023-05-13T04:42:32.744Z,68.05
2023-05-13T04:47:37.993Z,67.84
2023-05-13T04:52:42.849Z,67.23
2023-05-13T04:57:45.671Z,67.79
2023-05-13T05:02:47.528Z,67.51
2023-05-13T05:07:49.388Z,68.09
2023-05-13T05:12:51.944Z,68.21
2023-05-13T05:17:54.000Z,68.20
2023-05-13T05:22:55.896Z,68.04
2023-05-13T05:27:59.869Z,67.59
2023-05-13T05:33:02.500Z,66.45
2023-05-13T05:38:05.225Z,65.22
2023-05-13T05:43:08.084Z,64.47
2023-05-13T05:48:10.637Z,63.56
2023-05-13T05:53:12.680Z,63.11
2023-05-13T05:58:16.369Z,62.50
2023-05-13T06:03:18.839Z,60.91
2023-05-13T06:08:20.831Z,59.19
2023-05-13T06:13:22.878Z,57.95
2023-05-13T06:18:26.191Z,57.45
2023-05-13T06:23:28.954Z,58.90
2023-05-13T06:28:30.798Z,59.80
2023-05-13T06:33:32.579Z,59.52
2023-05-13T06:38:34.868Z,59.07
2023-05-13T06:43:38.771Z,58.57
2023-05-13T06:49:02.962Z,56.79
2023-05-13T06:54:04.915Z,55.83
2023-05-13T06:59:06.619Z,54.95
2023-05-13T07:04:08.352Z,53.52
2023-05-13T07:09:10.116Z,52.84
2023-05-13T07:14:11.791Z,52.94
2023-05-13T07:19:13.529Z,51.05
2023-05-13T07:24:15.334Z,48.60
2023-05-13T07:29:16.949Z,48.39
2023-05-13T07:34:19.049Z,47.64
2023-05-13T07:39:20.718Z,46.14
2023-05-13T07:44:22.412Z,45.43
2023-05-13T07:49:24.070Z,44.93
2023-05-13T07:54:25.786Z,44.84
2023-05-13T07:59:27.706Z,43.33
2023-05-13T08:04:29.451Z,41.25
2023-05-13T08:09:31.147Z,41.09
2023-05-13T08:14:32.851Z,40.97
2023-05-13T08:19:36.248Z,40.93
2023-05-13T08:24:40.514Z,40.21
2023-05-13T08:29:42.148Z,39.72
2023-05-13T08:34:43.908Z,39.54
2023-05-13T08:39:45.947Z,40.34
2023-05-13T08:44:49.116Z,39.87
2023-05-13T08:49:52.183Z,40.18
2023-05-13T08:54:54.525Z,39.91
2023-05-13T08:59:56.206Z,39.44
2023-05-13T09:05:02.820Z,39.27
2023-05-13T09:10:06.185Z,39.76
2023-05-13T09:15:12.887Z,40.85
2023-05-13T09:20:17.280Z,41.16
2023-05-13T09:25:21.689Z,41.13
2023-05-13T09:30:28.227Z,39.99
2023-05-13T09:35:31.562Z,38.63
2023-05-13T09:40:33.273Z,38.48
2023-05-13T09:45:36.019Z,37.01
2023-05-13T09:50:48.334Z,36.12
2023-05-13T09:55:56.315Z,36.80
2023-05-13T10:00:58.594Z,36.71
2023-05-13T10:06:03.394Z,36.33
2023-05-13T10:11:07.048Z,36.21
2023-05-13T10:16:09.482Z,36.82
2023-05-13T10:21:12.748Z,36.87
2023-05-13T10:26:14.737Z,34.75
2023-05-13T10:31:17.653Z,34.74
2023-05-13T10:36:28.152Z,35.20
2023-05-13T10:42:14.856Z,36.12
2023-05-13T10:47:17.021Z,36.94
2023-05-13T10:52:19.457Z,36.76
2023-05-13T10:57:29.453Z,36.46
2023-05-13T11:02:31.815Z,35.68
2023-05-13T11:07:38.237Z,35.02
2023-05-13T11:12:39.963Z,35.41
2023-05-13T11:17:45.874Z,34.66
2023-05-13T11:22:47.621Z,33.24
2023-05-13T11:27:49.293Z,33.37
2023-05-13T11:32:51.517Z,34.53
2023-05-13T11:37:59.875Z,35.32
2023-05-13T11:43:02.308Z,33.82
2023-05-13T11:48:23.987Z,32.60
2023-05-13T11:53:25.718Z,32.33
2023-05-13T11:58:27.512Z,31.42
2023-05-13T12:03:29.194Z,30.96
2023-05-13T12:08:31.688Z,32.64
2023-05-13T12:13:33.504Z,33.38
2023-05-13T12:18:35.427Z,33.62
2023-05-13T12:23:43.222Z,33.82
2023-05-13T12:28:44.911Z,33.56
2023-05-13T12:33:49.308Z,32.86
2023-05-13T12:39:10.923Z,31.56
2023-05-13T12:44:16.167Z,31.72
2023-05-13T12:49:18.001Z,32.10
2023-05-13T12:54:19.694Z,32.21
2023-05-13T12:59:21.369Z,33.12
2023-05-13T13:04:23.359Z,34.13
2023-05-13T13:09:25.101Z,33.94
2023-05-13T13:14:26.874Z,34.98
2023-05-13T13:19:28.754Z,35.44
2023-05-13T13:24:30.550Z,36.49
2023-05-13T13:29:32.387Z,37.25
2023-05-13T13:34:34.088Z,38.00
2023-05-13T13:39:36.133Z,38.48
2023-05-13T13:44:39.427Z,39.13
2023-05-13T13:49:41.188Z,38.81
2023-05-13T13:54:42.924Z,39.00
2023-05-13T13:59:44.567Z,38.82
2023-05-13T14:04:46.468Z,38.58
2023-05-13T14:09:49.851Z,38.48
2023-05-13T14:14:51.502Z,38.76
2023-05-13T14:19:55.474Z,38.92
2023-05-13T14:24:58.702Z,39.10
2023-05-13T14:30:00.415Z,39.76
2023-05-13T14:35:02.184Z,40.43
2023-05-13T14:40:04.858Z,40.33
2023-05-13T14:45:07.197Z,40.36
2023-05-13T14:50:09.091Z,40.45
2023-05-13T14:55:11.059Z,40.52
2023-05-13T15:00:13.280Z,40.15
2023-05-13T15:05:15.043Z,40.09
2023-05-13T15:10:16.859Z,40.49
2023-05-13T15:15:18.760Z,40.02
2023-05-13T15:20:20.662Z,39.78
2023-05-13T15:25:22.594Z,40.31
2023-05-13T15:30:24.513Z,40.75
2023-05-13T15:35:26.486Z,40.89
2023-05-13T15:40:28.173Z,40.76
2023-05-13T15:45:30.064Z,41.09
2023-05-13T15:50:31.943Z,41.65
2023-05-13T15:55:34.093Z,42.02
2023-05-13T16:00:35.850Z,42.49
2023-05-13T16:05:38.644Z,42.85
2023-05-13T16:10:40.330Z,42.98
2023-05-13T16:15:42.052Z,43.40
2023-05-13T16:20:44.316Z,43.94
2023-05-13T16:25:55.756Z,44.17
2023-05-13T16:30:58.645Z,44.27
2023-05-13T16:36:00.650Z,44.42
2023-05-13T16:41:02.451Z,44.51
2023-05-13T16:46:04.262Z,44.92
2023-05-13T16:51:06.349Z,45.38
2023-05-13T16:56:08.211Z,45.58
2023-05-13T17:01:10.027Z,46.04
2023-05-13T17:06:12.572Z,46.29
2023-05-13T17:11:17.602Z,46.71
2023-05-13T17:16:19.352Z,46.89
2023-05-13T17:21:21.220Z,47.20
2023-05-13T17:26:22.914Z,47.13
2023-05-13T17:31:25.796Z,46.91
2023-05-13T17:36:27.740Z,47.00
2023-05-13T17:41:29.429Z,47.33
2023-05-13T17:46:31.104Z,47.69
2023-05-13T17:51:32.770Z,48.30
2023-05-13T17:56:34.418Z,48.82
2023-05-13T18:01:36.269Z,49.04
2023-05-13T18:06:38.007Z,49.08
2023-05-13T18:11:39.788Z,49.40
2023-05-13T18:16:41.569Z,49.74
2023-05-13T18:21:43.523Z,50.31
2023-05-13T18:26:45.156Z,51.01
2023-05-13T18:31:46.816Z,51.65
2023-05-13T18:36:51.933Z,52.30
2023-05-13T18:41:53.794Z,53.10
2023-05-13T18:46:55.443Z,53.63
2023-05-13T18:51:57.172Z,55.71
2023-05-13T18:56:59.014Z,58.81
2023-05-13T19:02:01.153Z,60.23
2023-05-13T19:07:03.051Z,60.50
2023-05-13T19:12:05.488Z,60.48
2023-05-13T19:17:07.309Z,59.74
2023-05-13T19:22:09.013Z,58.77
2023-05-13T19:27:11.187Z,58.68
2023-05-13T19:32:12.924Z,61.35
2023-05-13T19:37:14.665Z,63.59
2023-05-13T19:42:16.530Z,65.15
2023-05-13T19:47:18.284Z,64.82
2023-05-13T19:52:20.013Z,64.16
2023-05-13T19:57:21.879Z,63.66
2023-05-13T20:02:24.893Z,63.37
2023-05-13T20:07:26.769Z,62.89
2023-05-13T20:12:28.514Z,62.59
2023-05-13T20:17:30.369Z,62.70
2023-05-13T20:22:32.307Z,62.91
2023-05-13T20:27:34.816Z,63.01
2023-05-13T20:32:36.712Z,63.36
2023-05-13T20:37:38.400Z,63.58
2023-05-13T20:42:40.158Z,63.71
2023-05-13T20:47:41.833Z,64.05
2023-05-13T20:52:43.472Z,64.30
2023-05-13T20:57:46.722Z,64.37
2023-05-13T21:02:50.286Z,64.63
2023-05-13T21:07:52.590Z,63.75
2023-05-13T21:12:57.751Z,64.31
2023-05-13T21:17:59.462Z,64.90
2023-05-13T21:23:01.416Z,66.22
2023-05-13T21:28:03.951Z,66.06
2023-05-13T21:33:07.819Z,66.67
2023-05-13T21:38:11.985Z,67.20
2023-05-13T21:43:15.384Z,67.25
2023-05-13T21:48:37.130Z,66.85
2023-05-13T21:53:38.826Z,66.97
2023-05-13T21:58:40.714Z,67.05
2023-05-13T22:03:42.376Z,67.35
2023-05-13T22:08:44.257Z,67.25
2023-05-13T22:13:46.505Z,66.78
2023-05-13T22:18:50.119Z,66.71
2023-05-13T22:23:53.822Z,67.15
2023-05-13T22:28:55.752Z,67.97
2023-05-13T22:33:57.443Z,68.65
2023-05-13T22:38:59.118Z,68.59
2023-05-13T22:44:00.831Z,68.58
2023-05-13T22:49:02.645Z,69.27
2023-05-13T22:54:04.336Z,69.40
2023-05-13T22:59:06.313Z,69.85
2023-05-13T23:04:08.056Z,70.34
2023-05-13T23:09:10.298Z,71.15
2023-05-13T23:14:18.189Z,71.32
2023-05-13T23:19:19.862Z,71.25
2023-05-13T23:24:21.612Z,71.71
2023-05-13T23:29:27.469Z,71.44
2023-05-13T23:34:29.175Z,72.19
2023-05-13T23:39:33.854Z,72.30
2023-05-13T23:44:35.587Z,72.43
2023-05-13T23:50:03.219Z,72.40
2023-05-13T23:55:05.760Z,72.68
